sim
Sign-in with your pilot id or email,
or register
Callsign
Passwort

Schedule Details

Flight Number: EWG1701 (2)
Departure: Thessaloniki International Airport (LGTS) at 15:25
Arrival: Munich Airport (EDDM) at 17:50
Route: Eurowings Passenger Schedule. Enter filed route here before submitting Pirep.

Weather Information
Getting current METAR information for LGTS 280720Z 00006KT 9999 FEW020 23/18 Q1014 NOSIG
Getting current METAR information for EDDM 280720Z VRB02KT 9999 -RA FEW025 SCT045 06/05 Q1010 NOSIG

Schedule Frequency

Route Map